Time;durP1;ratioP1;P1;durP2;ratioP2;P2;SDS_P1;SDS_P2;PMS_P1;PMS_P2;Temp;Humidity;BMP_temperature;BMP_pressure;BME280_temperature;BME280_humidity;BME280_pressure;Samples;Min_cycle;Max_cycle;Signal;HPM_P1;HPM_P2
2023/10/02 00:01:47;;;;;;;17.33;9.68;;;17.40;99.90;;;;;;5036412;28;20025;-56
2023/10/02 00:04:16;;;;;;;16.67;8.65;;;17.50;99.90;;;;;;5037693;28;20483;-56
2023/10/02 00:06:42;;;;;;;16.77;9.27;;;17.50;99.90;;;;;;5034208;28;20041;-56
2023/10/02 00:09:08;;;;;;;17.00;9.15;;;17.50;99.90;;;;;;5046951;28;20086;-57
2023/10/02 00:11:36;;;;;;;17.77;9.05;;;17.50;99.90;;;;;;5046943;28;20031;-56
2023/10/02 00:14:18;;;;;;;14.65;8.57;;;17.40;99.90;;;;;;5041685;28;20514;-56
2023/10/02 00:16:58;;;;;;;22.55;10.25;;;17.50;99.90;;;;;;5040910;28;20033;-56
2023/10/02 00:19:28;;;;;;;;;;;17.40;99.90;;;;;;5044637;28;20040;-56
2023/10/02 00:21:57;;;;;;;16.60;9.27;;;17.40;99.90;;;;;;5044427;28;19904;-56
2023/10/02 00:24:32;;;;;;;15.95;9.40;;;17.40;99.90;;;;;;5041879;28;20075;-56
2023/10/02 00:26:57;;;;;;;19.67;10.73;;;17.50;99.90;;;;;;5041307;28;20026;-56
2023/10/02 00:29:25;;;;;;;19.67;9.70;;;17.50;99.90;;;;;;5037964;28;20040;-56
2023/10/02 00:31:51;;;;;;;18.60;9.43;;;17.50;99.90;;;;;;5048674;28;20021;-56
2023/10/02 00:34:30;;;;;;;20.40;9.55;;;17.50;99.90;;;;;;5041179;28;20029;-57
2023/10/02 00:36:56;;;;;;;20.38;10.57;;;17.50;99.90;;;;;;5044591;28;20029;-56
2023/10/02 00:39:25;;;;;;;20.35;9.98;;;17.50;99.90;;;;;;5042418;28;20502;-56
2023/10/02 00:42:15;;;;;;;19.70;11.30;;;17.50;99.90;;;;;;5044896;28;20474;-56
2023/10/02 00:44:54;;;;;;;20.50;10.00;;;17.50;99.90;;;;;;5047688;28;20072;-56
2023/10/02 00:47:41;;;;;;;14.77;9.15;;;17.50;99.90;;;;;;5046736;28;20112;-56
2023/10/02 00:50:17;;;;;;;18.50;9.73;;;17.60;99.90;;;;;;5040859;28;20025;-57
2023/10/02 00:52:50;;;;;;;16.98;9.85;;;17.60;99.90;;;;;;5043229;28;20021;-57
2023/10/02 00:55:18;;;;;;;18.40;9.82;;;17.60;99.90;;;;;;5045077;28;20013;-56
2023/10/02 00:57:45;;;;;;;20.02;10.25;;;17.60;99.90;;;;;;5039949;28;20033;-57
2023/10/02 01:00:21;;;;;;;20.00;9.80;;;17.60;99.90;;;;;;5041478;28;20128;-57
2023/10/02 01:02:51;;;;;;;15.80;9.50;;;17.60;99.90;;;;;;5041667;28;20116;-56
2023/10/02 01:05:30;;;;;;;18.70;9.80;;;17.60;99.90;;;;;;5041866;28;20030;-56
2023/10/02 01:08:00;;;;;;;16.75;9.90;;;17.70;99.90;;;;;;5047945;28;20509;-57
2023/10/02 01:10:32;;;;;;;18.58;9.82;;;17.60;99.90;;;;;;5039612;28;20025;-57
2023/10/02 01:13:01;;;;;;;19.30;10.63;;;17.70;99.90;;;;;;5044335;28;20471;-56
2023/10/02 01:15:30;;;;;;;18.73;9.55;;;17.70;99.90;;;;;;5045577;28;20029;-57
2023/10/02 01:20:48;;;;;;;18.63;9.10;;;17.60;99.90;;;;;;5040365;28;20036;-57
2023/10/02 01:23:17;;;;;;;16.08;8.68;;;17.60;99.90;;;;;;5040836;28;20035;-57
2023/10/02 01:25:47;;;;;;;15.75;8.98;;;17.60;99.90;;;;;;5042574;28;20031;-55
2023/10/02 01:28:15;;;;;;;17.73;9.70;;;17.60;99.90;;;;;;5046485;28;20059;-56
2023/10/02 01:30:42;;;;;;;15.57;8.50;;;17.60;99.90;;;;;;5046180;28;20095;-56
2023/10/02 01:35:46;;;;;;;20.85;10.13;;;17.60;99.90;;;;;;5044574;28;20021;-56
2023/10/02 01:38:13;;;;;;;19.08;9.80;;;17.60;99.90;;;;;;5042950;28;20394;-56
2023/10/02 01:40:54;;;;;;;21.35;10.48;;;17.60;99.90;;;;;;5041108;28;20123;-55
2023/10/02 01:43:27;;;;;;;20.95;9.32;;;17.50;99.90;;;;;;5041590;28;20021;-55
2023/10/02 01:46:00;;;;;;;19.50;9.95;;;17.50;99.90;;;;;;5050129;28;20023;-56
2023/10/02 01:48:44;;;;;;;18.65;10.68;;;17.60;99.90;;;;;;5042526;28;20025;-56
2023/10/02 01:51:16;;;;;;;20.20;9.75;;;17.60;99.90;;;;;;5043238;28;20265;-56
2023/10/02 01:53:51;;;;;;;18.63;10.15;;;17.60;99.90;;;;;;5046919;28;20044;-56
2023/10/02 01:56:19;;;;;;;20.05;10.77;;;17.60;99.90;;;;;;5042076;28;20405;-56
2023/10/02 01:58:48;;;;;;;19.65;9.57;;;17.60;99.90;;;;;;5039117;28;20017;-56
2023/10/02 02:01:14;;;;;;;19.60;9.98;;;17.60;99.90;;;;;;5034889;28;20035;-56
2023/10/02 02:03:43;;;;;;;18.88;9.30;;;17.60;99.90;;;;;;5044349;28;20124;-56
2023/10/02 02:06:09;;;;;;;20.67;10.52;;;17.60;99.90;;;;;;5043346;28;20053;-56
2023/10/02 02:08:40;;;;;;;20.63;10.52;;;17.60;99.90;;;;;;5043781;28;20467;-56
2023/10/02 02:11:14;;;;;;;21.88;11.05;;;17.60;99.90;;;;;;5043348;28;20104;-56
2023/10/02 02:13:44;;;;;;;20.25;9.88;;;17.60;99.90;;;;;;5045397;28;20481;-56
2023/10/02 02:16:22;;;;;;;17.95;9.32;;;17.60;99.90;;;;;;5043855;28;20425;-56
2023/10/02 02:18:53;;;;;;;18.17;9.75;;;17.60;99.90;;;;;;5041991;28;20295;-57
2023/10/02 02:21:21;;;;;;;20.77;10.52;;;17.50;99.90;;;;;;5040316;28;20073;-57
2023/10/02 02:23:48;;;;;;;22.90;11.05;;;17.50;99.90;;;;;;5040457;28;20454;-57
2023/10/02 02:26:21;;;;;;;20.38;10.25;;;17.50;99.90;;;;;;5043396;28;20020;-57
2023/10/02 02:28:51;;;;;;;17.23;9.52;;;17.50;99.90;;;;;;5039269;28;20290;-57
2023/10/02 02:31:30;;;;;;;17.87;10.63;;;17.40;99.90;;;;;;5038401;28;20033;-57
2023/10/02 02:34:14;;;;;;;24.95;10.30;;;17.50;99.90;;;;;;5040252;28;20025;-56
2023/10/02 02:36:41;;;;;;;19.15;9.65;;;17.50;99.90;;;;;;5042986;28;20528;-56
2023/10/02 02:39:15;;;;;;;20.10;10.55;;;17.40;99.90;;;;;;5048612;28;20441;-56
2023/10/02 02:41:45;;;;;;;19.65;9.98;;;17.40;99.90;;;;;;5047102;28;20029;-56
2023/10/02 02:44:36;;;;;;;20.17;9.75;;;17.40;99.90;;;;;;5033114;28;20114;-56
2023/10/02 02:47:07;;;;;;;;;;;17.40;99.90;;;;;;5043879;28;20112;-57
2023/10/02 02:49:48;;;;;;;22.40;10.35;;;17.40;99.90;;;;;;5039793;28;19909;-56
2023/10/02 02:52:26;;;;;;;20.20;10.80;;;17.40;99.90;;;;;;5040562;28;20025;-56
2023/10/02 02:55:03;;;;;;;19.63;11.15;;;17.40;99.90;;;;;;5034188;28;20021;-56
2023/10/02 02:57:33;;;;;;;22.75;10.07;;;17.40;99.90;;;;;;5043261;28;20021;-56
2023/10/02 03:02:52;;;;;;;19.17;10.35;;;17.40;99.90;;;;;;5040131;28;20039;-56
2023/10/02 03:05:21;;;;;;;23.80;10.63;;;17.30;99.90;;;;;;5042928;28;20060;-56
2023/10/02 03:07:54;;;;;;;16.87;9.23;;;17.30;99.90;;;;;;5039386;28;20285;-56
2023/10/02 03:10:20;;;;;;;16.40;9.27;;;17.30;99.90;;;;;;5039193;28;20030;-56
2023/10/02 03:12:48;;;;;;;21.77;10.75;;;17.30;99.90;;;;;;5039110;28;20091;-57
2023/10/02 03:15:17;;;;;;;20.77;10.77;;;17.20;99.90;;;;;;5044842;28;20029;-57
2023/10/02 03:17:48;;;;;;;18.02;9.95;;;17.20;99.90;;;;;;5040787;28;20021;-56
2023/10/02 03:20:23;;;;;;;21.08;10.85;;;17.20;99.90;;;;;;5043451;28;20025;-56
2023/10/02 03:22:54;;;;;;;19.70;10.23;;;17.10;99.90;;;;;;5038729;28;20114;-56
2023/10/02 03:25:28;;;;;;;19.90;10.40;;;17.10;99.90;;;;;;5046398;28;20078;-56
2023/10/02 03:27:55;;;;;;;22.75;10.82;;;17.10;99.90;;;;;;5041114;28;20021;-57
2023/10/02 03:30:38;;;;;;;20.00;10.48;;;17.00;99.90;;;;;;5043526;28;20027;-57
2023/10/02 03:33:17;;;;;;;19.40;11.02;;;17.00;99.90;;;;;;5042569;28;20108;-57
2023/10/02 03:35:56;;;;;;;23.13;11.15;;;17.00;99.90;;;;;;5042383;28;20039;-56
2023/10/02 03:38:23;;;;;;;21.77;9.88;;;17.00;99.90;;;;;;5037237;28;20025;-56
2023/10/02 03:40:54;;;;;;;19.70;10.10;;;17.00;99.90;;;;;;5045294;28;20032;-56
2023/10/02 03:43:31;;;;;;;19.80;10.25;;;16.90;99.90;;;;;;5046651;28;20390;-56
2023/10/02 03:45:58;;;;;;;21.38;10.98;;;16.90;99.90;;;;;;5049408;28;20031;-56
2023/10/02 03:48:28;;;;;;;21.75;10.45;;;16.90;99.90;;;;;;5047147;28;20044;-56
2023/10/02 03:50:56;;;;;;;19.60;10.40;;;16.80;99.90;;;;;;5047847;28;20009;-57
2023/10/02 03:53:32;;;;;;;22.58;11.55;;;16.80;99.90;;;;;;5043583;28;20036;-56
2023/10/02 03:58:51;;;;;;;22.95;11.45;;;16.80;99.90;;;;;;5050715;28;20098;-56
2023/10/02 04:01:29;;;;;;;20.88;11.15;;;16.80;99.90;;;;;;5046597;28;20079;-56
2023/10/02 04:06:53;;;;;;;23.50;11.30;;;16.70;99.90;;;;;;5046824;28;20132;-56
2023/10/02 04:11:50;;;;;;;22.58;10.82;;;16.70;99.90;;;;;;5050496;28;20025;-56
2023/10/02 04:14:31;;;;;;;22.00;10.95;;;16.70;99.90;;;;;;5043603;28;20025;-56
2023/10/02 04:17:14;;;;;;;22.98;10.88;;;16.70;99.90;;;;;;5045512;28;20066;-56
2023/10/02 04:19:48;;;;;;;23.17;11.45;;;16.70;99.90;;;;;;5047691;28;20029;-56
2023/10/02 04:22:22;;;;;;;19.95;11.02;;;16.60;99.90;;;;;;5049912;28;20019;-56
2023/10/02 04:24:53;;;;;;;20.75;10.57;;;16.60;99.90;;;;;;5038781;28;20413;-56
2023/10/02 04:27:25;;;;;;;22.25;10.48;;;16.60;99.90;;;;;;5047993;28;20024;-56
2023/10/02 04:30:22;;;;;;;17.88;10.02;;;16.60;99.90;;;;;;5045640;28;20017;-56
2023/10/02 04:32:59;;;;;;;19.92;9.90;;;16.60;99.90;;;;;;5042674;28;20441;-56
2023/10/02 04:35:44;;;;;;;23.00;11.45;;;16.60;99.90;;;;;;5048602;28;20033;-57
2023/10/02 04:38:47;;;;;;;22.13;10.38;;;16.50;99.90;;;;;;5048755;28;20470;-56
2023/10/02 04:41:03;;;;;;;20.10;10.50;;;16.50;99.90;;;;;;5043099;28;20547;-56
2023/10/02 04:43:29;;;;;;;21.30;10.95;;;16.50;99.90;;;;;;5042810;28;20036;-56
2023/10/02 04:46:02;;;;;;;22.52;10.90;;;16.60;99.90;;;;;;5046629;28;20028;-57
2023/10/02 04:48:39;;;;;;;17.83;10.05;;;16.50;99.90;;;;;;5048066;28;20275;-56
2023/10/02 04:51:09;;;;;;;24.20;11.07;;;16.60;99.90;;;;;;5050010;28;20029;-56
2023/10/02 04:53:36;;;;;;;17.80;10.02;;;16.60;99.90;;;;;;5046636;28;20021;-56
2023/10/02 04:56:21;;;;;;;18.42;10.10;;;16.50;99.90;;;;;;5041764;28;20438;-56
2023/10/02 04:58:51;;;;;;;19.83;10.35;;;16.50;99.90;;;;;;5037683;28;20043;-56
2023/10/02 05:01:24;;;;;;;26.17;12.25;;;16.50;99.90;;;;;;5048479;28;20366;-55
2023/10/02 05:03:53;;;;;;;24.90;11.23;;;16.50;99.90;;;;;;5040913;28;20383;-56
2023/10/02 05:14:47;;;;;;;21.30;11.02;;;16.40;99.90;;;;;;5027853;28;20110;-55
2023/10/02 05:17:38;;;;;;;;;;;16.40;99.90;;;;;;5049706;28;20032;-56
2023/10/02 05:20:04;;;;;;;;;;;16.40;99.90;;;;;;5044853;28;20050;-57
2023/10/02 05:22:32;;;;;;;25.15;11.07;;;16.40;99.90;;;;;;5046333;28;19916;-57
2023/10/02 05:24:59;;;;;;;24.17;11.10;;;16.40;99.90;;;;;;5044107;28;20037;-57
2023/10/02 05:27:36;;;;;;;21.65;11.50;;;16.40;99.90;;;;;;5047319;28;20475;-57
2023/10/02 05:30:12;;;;;;;22.80;11.10;;;16.30;99.90;;;;;;5044074;28;20028;-57
2023/10/02 05:32:39;;;;;;;20.98;10.75;;;16.30;99.90;;;;;;5047421;28;20538;-57
2023/10/02 05:35:16;;;;;;;18.30;10.15;;;16.30;99.90;;;;;;5040543;28;20021;-57
2023/10/02 05:37:43;;;;;;;22.98;11.68;;;16.30;99.90;;;;;;5049989;28;20490;-57
2023/10/02 05:42:53;;;;;;;21.05;10.00;;;16.30;99.90;;;;;;5038560;28;20025;-59
2023/10/02 05:48:15;;;;;;;20.80;10.57;;;16.40;99.90;;;;;;5044723;28;20056;-57
2023/10/02 05:50:47;;;;;;;16.40;9.60;;;16.40;99.90;;;;;;5047779;28;20028;-56
2023/10/02 05:53:15;;;;;;;23.35;10.75;;;16.40;99.90;;;;;;5048986;28;20530;-56
2023/10/02 05:58:31;;;;;;;23.63;11.32;;;16.40;99.90;;;;;;5047881;28;20091;-57
2023/10/02 06:01:18;;;;;;;21.05;10.38;;;16.40;99.90;;;;;;5048066;28;20047;-57
2023/10/02 06:03:45;;;;;;;22.70;11.32;;;16.50;99.90;;;;;;5047778;28;20031;-57
2023/10/02 06:06:17;;;;;;;21.85;11.02;;;16.50;99.90;;;;;;5044622;28;20033;-57
2023/10/02 06:08:51;;;;;;;18.83;9.93;;;16.50;99.90;;;;;;5041373;28;20062;-58
2023/10/02 06:11:26;;;;;;;22.98;10.57;;;16.50;99.90;;;;;;5047263;28;20097;-58
2023/10/02 06:13:54;;;;;;;18.58;9.98;;;16.60;99.90;;;;;;5042344;28;20036;-57
2023/10/02 06:16:30;;;;;;;22.52;11.20;;;16.70;99.90;;;;;;5039823;28;20434;-58
2023/10/02 06:19:03;;;;;;;25.70;11.18;;;16.70;99.90;;;;;;5047414;28;20024;-57
2023/10/02 06:21:28;;;;;;;21.92;11.00;;;16.80;99.90;;;;;;5044453;28;20022;-57
2023/10/02 06:23:56;;;;;;;22.45;10.85;;;16.80;99.90;;;;;;5047367;28;20021;-57
2023/10/02 06:26:25;;;;;;;20.60;10.10;;;16.90;99.90;;;;;;5045503;28;20032;-57
2023/10/02 06:29:13;;;;;;;16.17;10.00;;;16.90;99.90;;;;;;5048060;28;20100;-57
2023/10/02 06:31:41;;;;;;;20.35;10.23;;;17.00;99.90;;;;;;5040652;28;20057;-57
2023/10/02 06:34:08;;;;;;;23.73;11.15;;;17.10;99.90;;;;;;5045027;28;20025;-57
2023/10/02 06:36:45;;;;;;;23.00;11.05;;;17.10;99.90;;;;;;5039186;28;20033;-58
2023/10/02 06:39:13;;;;;;;23.63;10.32;;;17.20;99.90;;;;;;5040582;28;20025;-57
2023/10/02 06:41:39;;;;;;;18.83;10.02;;;17.30;99.90;;;;;;5038977;28;20498;-57
2023/10/02 06:44:14;;;;;;;21.35;10.30;;;17.30;99.90;;;;;;5034131;28;20385;-58
2023/10/02 06:46:53;;;;;;;22.52;10.27;;;17.40;99.90;;;;;;5035407;28;20040;-58
2023/10/02 06:49:20;;;;;;;18.75;9.40;;;17.40;99.90;;;;;;5033671;28;20021;-58
2023/10/02 06:51:49;;;;;;;26.55;10.98;;;17.50;99.90;;;;;;5035787;28;20047;-58
2023/10/02 06:54:19;;;;;;;22.98;10.82;;;17.60;99.90;;;;;;5031295;28;20016;-57
2023/10/02 06:56:45;;;;;;;17.98;9.88;;;17.70;99.90;;;;;;5030013;28;20072;-58
2023/10/02 06:59:11;;;;;;;19.40;10.48;;;17.70;99.90;;;;;;5039670;28;20348;-58
2023/10/02 07:01:37;;;;;;;22.67;10.73;;;17.70;99.90;;;;;;5032930;28;20025;-58
2023/10/02 07:04:12;;;;;;;21.30;10.52;;;17.80;99.90;;;;;;5034904;28;20028;-58
2023/10/02 07:06:38;;;;;;;21.20;9.95;;;17.80;99.90;;;;;;5035300;28;20033;-57
2023/10/02 07:09:10;;;;;;;21.10;10.90;;;17.80;99.90;;;;;;5033178;28;20096;-57
2023/10/02 07:11:37;;;;;;;21.50;9.95;;;17.80;99.90;;;;;;5042192;28;20029;-57
2023/10/02 07:14:04;;;;;;;19.55;10.68;;;17.90;99.90;;;;;;5036612;28;20116;-57
2023/10/02 07:16:37;;;;;;;23.08;11.20;;;17.90;99.90;;;;;;5038597;28;20036;-57
2023/10/02 07:19:04;;;;;;;21.27;10.65;;;18.00;99.90;;;;;;5041792;28;20024;-57
2023/10/02 07:21:31;;;;;;;20.35;9.68;;;18.00;99.90;;;;;;5041916;28;20083;-57
2023/10/02 07:23:58;;;;;;;22.77;11.43;;;18.10;99.90;;;;;;5040451;28;20057;-58
2023/10/02 07:29:08;;;;;;;22.50;11.55;;;18.30;99.90;;;;;;5044454;28;20451;-58
2023/10/02 07:31:34;;;;;;;23.10;10.80;;;18.30;99.90;;;;;;5041562;28;20022;-58
2023/10/02 07:34:00;;;;;;;16.80;9.70;;;18.40;99.90;;;;;;5039026;28;20029;-59
2023/10/02 07:36:26;;;;;;;22.58;10.70;;;18.50;99.90;;;;;;5035928;28;20036;-59
2023/10/02 07:38:53;;;;;;;23.70;11.02;;;18.60;99.90;;;;;;5034778;28;20104;-58
2023/10/02 07:41:27;;;;;;;20.63;11.40;;;18.70;99.90;;;;;;5040209;28;20537;-58
2023/10/02 07:43:54;;;;;;;21.92;11.15;;;18.80;99.90;;;;;;5047112;28;20032;-59
2023/10/02 07:46:23;;;;;;;19.38;10.13;;;18.80;99.90;;;;;;5036250;28;20052;-59
2023/10/02 07:48:59;;;;;;;19.77;10.82;;;19.00;99.90;;;;;;5035474;28;20101;-59
2023/10/02 07:51:40;;;;;;;18.08;9.90;;;19.10;99.90;;;;;;5039336;28;20570;-58
2023/10/02 07:54:09;;;;;;;;;;;19.20;99.90;;;;;;5038597;28;20021;-59
2023/10/02 07:56:35;;;;;;;18.88;10.05;;;19.40;99.90;;;;;;5039818;28;20042;-58
2023/10/02 07:59:01;;;;;;;19.73;11.10;;;19.40;99.90;;;;;;5044293;28;20504;-58
2023/10/02 08:01:28;;;;;;;25.73;11.68;;;19.50;99.90;;;;;;5035333;28;20172;-59
2023/10/02 08:03:55;;;;;;;18.83;10.32;;;19.50;99.90;;;;;;5038418;28;20049;-59
2023/10/02 08:06:36;;;;;;;19.83;11.52;;;19.50;99.90;;;;;;5038353;28;20429;-59
2023/10/02 08:11:51;;;;;;;19.77;10.45;;;19.70;99.90;;;;;;5040349;28;20391;-58
2023/10/02 08:17:18;;;;;;;19.48;10.25;;;19.80;99.90;;;;;;5033780;28;20075;-57
2023/10/02 08:19:54;;;;;;;24.58;12.27;;;20.00;99.90;;;;;;5038044;28;20464;-58
2023/10/02 08:22:35;;;;;;;20.95;10.85;;;20.10;99.90;;;;;;5033900;28;20553;-58
2023/10/02 08:25:02;;;;;;;19.65;11.18;;;20.20;99.90;;;;;;5037165;28;20033;-57
2023/10/02 08:27:30;;;;;;;20.77;10.32;;;20.30;99.90;;;;;;5034134;28;20029;-57
2023/10/02 08:29:55;;;;;;;18.17;10.20;;;20.50;99.90;;;;;;5033246;28;20021;-59
2023/10/02 08:32:28;;;;;;;19.70;10.60;;;21.00;99.90;;;;;;5038698;28;20074;-58
2023/10/02 08:34:54;;;;;;;20.15;10.30;;;22.00;99.90;;;;;;5044502;28;20024;-58
2023/10/02 08:37:20;;;;;;;20.05;11.10;;;23.00;99.90;;;;;;5036827;28;20442;-58
2023/10/02 08:39:46;;;;;;;19.27;10.68;;;24.50;99.40;;;;;;5038394;28;20055;-58
2023/10/02 08:42:11;;;;;;;17.42;10.80;;;25.60;97.20;;;;;;5033674;28;20369;-59
2023/10/02 08:44:38;;;;;;;17.73;10.73;;;26.10;94.60;;;;;;5039195;28;20045;-59
2023/10/02 08:47:06;;;;;;;20.55;11.38;;;26.40;93.50;;;;;;5043640;28;20091;-60
2023/10/02 08:49:34;;;;;;;18.80;10.38;;;27.40;93.10;;;;;;5033821;28;20025;-59
2023/10/02 08:52:03;;;;;;;18.73;10.13;;;28.30;91.10;;;;;;5034781;28;20493;-59
2023/10/02 08:54:32;;;;;;;18.58;11.15;;;29.30;88.00;;;;;;5034283;28;20083;-60
2023/10/02 08:57:06;;;;;;;14.80;9.40;;;29.10;85.70;;;;;;5033964;28;20057;-61
2023/10/02 08:59:38;;;;;;;18.90;10.82;;;29.10;86.10;;;;;;5040847;28;20398;-60
2023/10/02 09:02:08;;;;;;;16.73;10.85;;;29.40;85.20;;;;;;5020400;28;20027;-59
2023/10/02 09:04:34;;;;;;;19.15;10.20;;;30.30;83.50;;;;;;5048428;28;20059;-61
2023/10/02 09:07:14;;;;;;;18.35;9.45;;;31.00;80.50;;;;;;5032294;28;20025;-61
2023/10/02 09:09:45;;;;;;;15.40;10.27;;;31.40;79.80;;;;;;5040341;28;20033;-61
2023/10/02 09:12:15;;;;;;;15.90;9.68;;;32.10;76.90;;;;;;5034111;28;20053;-61
2023/10/02 09:14:41;;;;;;;17.17;9.73;;;31.70;77.50;;;;;;5036740;28;20116;-61
2023/10/02 09:17:22;;;;;;;15.63;10.18;;;30.50;78.00;;;;;;5047907;28;20112;-60
2023/10/02 09:19:58;;;;;;;14.38;10.05;;;30.80;78.00;;;;;;5039325;28;20406;-59
2023/10/02 09:22:25;;;;;;;16.10;10.30;;;30.80;77.20;;;;;;5041738;28;20120;-60
2023/10/02 09:25:09;;;;;;;12.82;9.10;;;31.10;77.50;;;;;;5033787;28;20037;-61
2023/10/02 09:27:41;;;;;;;14.63;9.90;;;32.10;75.40;;;;;;5041545;28;20029;-60
2023/10/02 09:30:15;;;;;;;17.67;9.98;;;32.50;75.00;;;;;;5032129;28;20029;-61
2023/10/02 09:32:49;;;;;;;17.13;10.05;;;33.10;74.40;;;;;;5035096;28;20013;-61
2023/10/02 09:35:40;;;;;;;19.58;10.23;;;33.20;72.70;;;;;;5043177;28;20032;-61
2023/10/02 09:38:06;;;;;;;14.32;10.02;;;33.90;70.40;;;;;;5034867;28;20415;-60
2023/10/02 09:43:27;;;;;;;17.92;10.38;;;31.70;72.60;;;;;;5037297;28;20541;-61
2023/10/02 09:45:55;;;;;;;17.33;10.88;;;31.40;74.10;;;;;;5033061;28;20026;-59
2023/10/02 09:49:01;;;;;;;19.73;10.93;;;31.80;75.80;;;;;;5035291;28;20022;-60
2023/10/02 09:55:07;;;;;;;15.05;10.60;;;32.30;72.50;;;;;;5044036;28;20045;-60
2023/10/02 09:57:49;;;;;;;17.48;10.90;;;32.90;71.50;;;;;;5034276;28;20065;-59
2023/10/02 10:00:34;;;;;;;18.08;10.98;;;32.20;72.70;;;;;;5039863;28;20139;-59
2023/10/02 10:03:24;;;;;;;17.73;10.82;;;31.60;72.80;;;;;;5032195;28;20025;-60
2023/10/02 10:06:08;;;;;;;15.80;10.15;;;29.80;75.60;;;;;;5038885;28;20033;-60
2023/10/02 10:14:37;;;;;;;17.73;10.88;;;30.60;74.70;;;;;;5040150;28;20235;-59
2023/10/02 10:17:17;;;;;;;17.98;10.93;;;30.90;73.20;;;;;;5035513;28;20608;-59
2023/10/02 10:20:08;;;;;;;19.35;11.57;;;32.10;72.80;;;;;;5039775;28;20104;-60
2023/10/02 10:22:36;;;;;;;18.58;11.05;;;32.40;72.20;;;;;;5034528;28;20033;-61
2023/10/02 10:27:40;;;;;;;16.15;10.68;;;33.30;69.80;;;;;;5042499;28;20360;-59
2023/10/02 10:30:33;;;;;;;15.32;10.27;;;32.30;70.30;;;;;;5041351;28;20044;-59
2023/10/02 10:35:57;;;;;;;15.60;9.82;;;33.40;70.00;;;;;;5042244;28;20036;-60
2023/10/02 10:38:36;;;;;;;17.52;10.75;;;33.60;69.90;;;;;;5046752;28;20455;-61
2023/10/02 10:41:06;;;;;;;16.95;10.60;;;33.90;68.20;;;;;;5033574;28;20064;-61
2023/10/02 10:46:29;;;;;;;16.90;10.48;;;33.40;68.10;;;;;;5039495;28;20117;-61
2023/10/02 10:49:10;;;;;;;15.32;10.27;;;33.50;70.10;;;;;;5039721;28;20048;-61
2023/10/02 10:51:40;;;;;;;16.48;10.85;;;33.90;67.10;;;;;;5034322;28;20017;-61
2023/10/02 10:54:12;;;;;;;15.48;9.82;;;33.70;67.70;;;;;;5035699;28;20367;-59
2023/10/02 10:56:45;;;;;;;14.90;9.32;;;33.90;68.40;;;;;;5037117;28;20538;-61
2023/10/02 10:59:24;;;;;;;13.95;9.60;;;34.80;66.20;;;;;;5033886;28;20048;-61
2023/10/02 11:04:51;;;;;;;16.17;10.27;;;33.90;66.40;;;;;;5038552;28;20059;-61
2023/10/02 11:07:19;;;;;;;14.18;10.23;;;34.00;67.00;;;;;;5036567;28;20116;-60
2023/10/02 11:10:12;;;;;;;15.98;9.85;;;33.90;65.30;;;;;;5035472;28;20029;-60
2023/10/02 11:12:39;;;;;;;15.30;9.90;;;33.60;66.20;;;;;;5042195;28;20029;-60
2023/10/02 11:15:28;;;;;;;14.75;9.80;;;32.90;67.20;;;;;;5038999;28;20422;-60
2023/10/02 11:18:18;;;;;;;15.30;9.45;;;33.30;67.20;;;;;;5043123;28;20025;-59
2023/10/02 11:20:49;;;;;;;20.17;10.52;;;33.20;67.80;;;;;;5037129;28;20017;-60
2023/10/02 11:23:23;;;;;;;14.98;10.70;;;32.80;67.00;;;;;;5034897;28;20079;-61
2023/10/02 11:25:56;;;;;;;15.77;9.77;;;32.50;69.20;;;;;;5037036;28;20648;-61
2023/10/02 11:28:34;;;;;;;14.15;9.85;;;32.70;67.70;;;;;;5036122;28;20049;-60
2023/10/02 11:31:36;;;;;;;17.10;10.75;;;33.30;66.90;;;;;;5032329;28;20026;-60
2023/10/02 11:34:07;;;;;;;15.93;10.10;;;33.20;67.20;;;;;;5035496;28;20018;-60
2023/10/02 11:36:35;;;;;;;15.27;9.55;;;33.90;66.90;;;;;;5037781;28;20544;-61
2023/10/02 11:39:08;;;;;;;13.70;9.32;;;34.00;67.10;;;;;;5044636;28;20107;-61
2023/10/02 11:41:35;;;;;;;16.45;9.63;;;34.70;65.50;;;;;;5039313;28;20083;-61
2023/10/02 11:44:00;;;;;;;14.57;9.18;;;34.90;64.50;;;;;;5037879;28;20068;-61
2023/10/02 11:46:26;;;;;;;15.07;9.25;;;35.20;65.70;;;;;;5033491;28;20435;-60
2023/10/02 11:48:54;;;;;;;13.93;9.70;;;35.20;64.90;;;;;;5036365;28;20409;-59
2023/10/02 11:51:19;;;;;;;14.13;9.57;;;34.90;65.00;;;;;;5043398;28;20025;-60
2023/10/02 11:53:45;;;;;;;12.98;8.40;;;35.40;65.20;;;;;;5040256;28;20029;-60
2023/10/02 11:56:10;;;;;;;15.15;8.98;;;36.10;63.60;;;;;;5043573;28;20036;-59
2023/10/02 11:58:36;;;;;;;13.63;9.20;;;36.00;63.60;;;;;;5033911;28;20044;-59
2023/10/02 12:01:06;;;;;;;12.57;8.82;;;36.10;62.40;;;;;;5033171;28;20478;-59
2023/10/02 12:03:36;;;;;;;11.80;8.73;;;35.50;63.80;;;;;;5040889;28;20021;-59
2023/10/02 12:06:02;;;;;;;12.77;8.60;;;36.00;63.50;;;;;;5036650;28;20033;-59
2023/10/02 12:08:27;;;;;;;13.80;9.27;;;35.80;61.80;;;;;;5038103;28;20040;-59
2023/10/02 12:10:56;;;;;;;12.48;8.50;;;34.90;64.00;;;;;;5040981;28;20029;-59
2023/10/02 12:13:21;;;;;;;20.90;9.30;;;34.40;64.30;;;;;;5044406;28;20025;-59
2023/10/02 12:15:49;;;;;;;13.20;9.20;;;34.00;65.60;;;;;;5039933;28;20045;-60
2023/10/02 12:18:15;;;;;;;11.55;8.27;;;33.70;64.60;;;;;;5041715;28;20452;-60
2023/10/02 12:20:42;;;;;;;10.70;7.32;;;33.50;65.10;;;;;;5038540;28;20033;-58
2023/10/02 12:23:09;;;;;;;12.85;8.23;;;33.40;65.40;;;;;;5040430;28;20033;-58
2023/10/02 12:25:36;;;;;;;15.57;9.18;;;32.90;66.50;;;;;;5038021;28;20113;-59
2023/10/02 12:28:02;;;;;;;13.20;8.05;;;32.30;67.00;;;;;;5046083;28;20417;-59
2023/10/02 12:30:28;;;;;;;12.30;8.18;;;31.60;68.10;;;;;;5039188;28;20568;-58
2023/10/02 12:32:54;;;;;;;14.35;8.40;;;31.10;69.40;;;;;;5046350;28;20037;-58
2023/10/02 12:35:20;;;;;;;13.77;8.27;;;31.00;69.70;;;;;;5045242;28;20548;-59
2023/10/02 12:37:46;;;;;;;12.45;8.10;;;30.70;70.20;;;;;;5043907;28;20078;-59
2023/10/02 12:40:18;;;;;;;15.50;9.25;;;30.20;71.10;;;;;;5042637;28;20034;-59
2023/10/02 12:42:44;;;;;;;15.55;9.02;;;29.70;72.10;;;;;;5040340;28;20025;-59
2023/10/02 12:45:10;;;;;;;14.25;8.60;;;29.30;72.70;;;;;;5048415;28;20049;-59
2023/10/02 12:47:40;;;;;;;14.18;8.23;;;28.90;73.70;;;;;;5044646;28;20057;-59
2023/10/02 12:50:10;;;;;;;15.00;9.07;;;28.90;73.70;;;;;;5043046;28;20018;-59
2023/10/02 12:52:36;;;;;;;15.38;9.27;;;28.70;74.20;;;;;;5040572;28;20104;-59
2023/10/02 12:55:02;;;;;;;13.35;8.68;;;28.30;74.70;;;;;;5040897;28;20113;-60
2023/10/02 12:57:28;;;;;;;16.25;9.50;;;28.20;75.20;;;;;;5041802;28;20095;-58
2023/10/02 12:59:54;;;;;;;14.23;8.60;;;27.90;76.40;;;;;;5040314;28;20033;-59
2023/10/02 13:02:19;;;;;;;19.88;9.38;;;27.70;76.20;;;;;;5043371;28;20108;-59
2023/10/02 13:04:45;;;;;;;15.73;8.93;;;27.50;77.20;;;;;;5042924;28;20121;-59
2023/10/02 13:07:10;;;;;;;16.65;8.60;;;27.40;77.40;;;;;;5041729;28;20086;-59
2023/10/02 13:09:36;;;;;;;18.23;9.50;;;27.40;78.10;;;;;;5051195;28;20420;-58
2023/10/02 13:12:02;;;;;;;15.60;8.98;;;27.30;77.80;;;;;;5039203;28;20367;-57
2023/10/02 13:14:28;;;;;;;15.10;8.55;;;27.00;78.70;;;;;;5039362;28;20112;-59
2023/10/02 13:16:53;;;;;;;14.38;8.15;;;26.90;79.80;;;;;;5036490;28;20128;-59
2023/10/02 13:19:19;;;;;;;16.10;8.77;;;26.70;79.50;;;;;;5038839;28;20052;-59
2023/10/02 13:21:45;;;;;;;14.93;8.10;;;26.70;80.40;;;;;;5045614;28;20078;-59
2023/10/02 13:24:15;;;;;;;18.63;9.50;;;26.50;80.20;;;;;;5037887;28;20060;-57
2023/10/02 13:26:41;;;;;;;15.35;8.68;;;26.40;80.10;;;;;;5037345;28;20025;-59
2023/10/02 13:29:07;;;;;;;17.02;9.30;;;26.20;81.40;;;;;;5039184;28;20151;-57
2023/10/02 13:31:33;;;;;;;16.00;9.20;;;26.10;81.70;;;;;;5038743;28;20017;-58
2023/10/02 13:33:58;;;;;;;19.55;9.57;;;26.00;81.70;;;;;;5042786;28;20036;-58
2023/10/02 13:36:25;;;;;;;23.95;8.82;;;25.90;82.10;;;;;;5041849;28;20048;-58
2023/10/02 13:38:57;;;;;;;17.27;9.05;;;25.80;83.10;;;;;;5049008;28;20060;-58
2023/10/02 13:41:25;;;;;;;17.20;9.50;;;25.70;83.90;;;;;;5042548;28;20386;-58
2023/10/02 13:43:59;;;;;;;16.65;8.20;;;25.50;84.80;;;;;;5041347;28;20504;-58
2023/10/02 13:46:25;;;;;;;14.82;9.63;;;25.50;83.80;;;;;;5042157;28;20503;-59
2023/10/02 13:48:54;;;;;;;18.42;9.23;;;25.40;84.40;;;;;;5042765;28;20056;-58
2023/10/02 13:51:21;;;;;;;17.23;9.48;;;25.40;84.70;;;;;;5042843;28;20048;-58
2023/10/02 13:53:49;;;;;;;16.35;9.50;;;25.30;85.10;;;;;;5042369;28;20025;-57
2023/10/02 13:56:20;;;;;;;17.17;9.30;;;25.30;84.40;;;;;;5038620;28;20009;-59
2023/10/02 13:58:51;;;;;;;15.43;8.63;;;25.30;85.70;;;;;;5040810;28;20035;-57
2023/10/02 14:01:19;;;;;;;;;;;25.30;85.80;;;;;;5045090;28;20025;-57